Aérodrome :
LOGIN :

S'inscrire | Disclaimer

   EN    FR    IT 

 










Légende :    VFR   VFR Marginal   IFR   IFR Intensif   IFR Très Intensif
Visi : 
Plafond : 
>= 8 km
>= 3000ft
5 à 8 km
1000 à 3000 ft
1500m à 5 km
500 à 1000 ft
800 à 1500m
200 à 500 ft
< 800m
< 200 ft
Symboles :   Orages  Brouillard  Fortes neiges  Fortes précipitations  Vent > 20 kt
SIGMETs :   Divers  Orages  Givrage  Turbulence  Onde Orograph.  Cendres Volcan.






- Altitude de l'aérodrome : 286 ft
- Code IATA : TRF


ENTO - Sandefjord , Torp

DERNIER METAR :
  • 180150Z AUTO 21004KT 0700 R18/P2000N R36/P2000N FG VV004 07/07 Q1007

METARs EXPIRÉS :
  • 180120Z AUTO 17002KT 2600 BR OVC001/// 07/07 Q1006
  • 180050Z AUTO 28003KT 3400 BR OVC001/// 07/07 Q1006
  • 180020Z AUTO VRB03KT 3800 OVC001/// 07/07 Q1006
  • 172350Z AUTO 31003KT 280V340 4600 OVC001/// 07/07 Q1006
  • 172320Z AUTO 31004KT 5000 OVC001/// 07/07 Q1006
  • 172250Z AUTO 30004KT 3500 BR OVC001/// 07/07 Q1006

TAF TAF ENTO
Valide du 18 à 00h jusqu'au 19 à 00h UTC


1800/1824 VRB06KT 0300 FG VV001
TEMPO 1800/1810 3000 BR BKN004
BECMG 1810/1812 9999 NSW SCT008 BKN015
BECMG 1818/1820 03010KT 4000 RA BR BKN005
TEMPO 1820/1824 1500 RADZ BR BKN003



MET'MAP, la Météo Aéronautique d'un coup d'oeil ! - Copyright ORBIFLY Décembre 2007 - Disclaimer

ORBIFLY MET'MAP TEAM :

Programmation & Développement : Alexandra Zaïnal
Conception & Développement : Baudouin d'Aumeries
Co-Programmation & Développement : Marc-Olivier Méhu
Soutien technique & logistique : Manuel Goepfert

Contact : metmap@orbifly.com




SOURCES & CREDITS :

   NOAA